Weather at Gran Canaria Airport

Public forecast

Using degrees Celsius for public forecast. Weather courtesy of forecast.io.

Current aviation weather report (METAR) for Gran Canaria Airport

Retrieved 2021/12/01 11:30 UTC (15 minutes ago):

GCLP 011130Z 05010KT 020V080 9999 SCT025 21/14 Q1026 NOSIG

Aviation forecast (TAF) for Gran Canaria Airport

Retrieved 2021/12/01 09:36 UTC (2 hours ago):

TAF GCLP 010800Z 0109/0209 03009KT 9999 FEW035 TX23/0114Z TN15/0206Z TAF AMD KNBG 0108/0207 VRB06KT 1200 BR FEW019 FEW026 QNH3008INS TEMPO 0107/0112 3200 BR BKN005 BECMG 0113/0115 VRB06KT 9999 FEW050 QNH3007INS BECMG 0202/0204 VRB06KT 8000 BR FEW010 SCT025 QNH3009INS TEMPO 0204/0207 0800 FG VV001 AUTOMATED SENSOR METWATCH 0107 TIL 0111 AMD 0825 T11/0109Z T18/0120Z